createdAt,value
2019-06-10T00:02:11.234Z,100814.09
2019-06-10T00:04:38.563Z,100813.53
2019-06-10T00:07:07.336Z,100822.79
2019-06-10T00:09:35.457Z,100812.16
2019-06-10T00:12:06.397Z,100801.78
2019-06-10T00:14:34.134Z,100801.67
2019-06-10T00:17:02.003Z,100791.72
2019-06-10T00:19:31.696Z,100790.77
2019-06-10T00:22:01.983Z,100792.45
2019-06-10T00:24:31.515Z,100786.48
2019-06-10T00:27:00.293Z,100785.75
2019-06-10T00:29:28.130Z,100777.49
2019-06-10T00:31:56.116Z,100775.03
2019-06-10T00:34:23.511Z,100777.20
2019-06-10T00:36:51.214Z,100774.17
2019-06-10T00:39:21.935Z,100778.81
2019-06-10T00:41:48.591Z,100769.89
2019-06-10T00:44:16.010Z,100765.55
2019-06-10T00:46:44.015Z,100764.96
2019-06-10T00:49:14.360Z,100756.70
2019-06-10T00:51:41.494Z,100753.83
2019-06-10T00:54:12.787Z,100745.62
2019-06-10T00:56:41.219Z,100748.86
2019-06-10T00:59:12.721Z,100741.38
2019-06-10T01:01:37.601Z,100743.38
2019-06-10T01:04:06.896Z,100738.22
2019-06-10T01:06:34.754Z,100742.02
2019-06-10T01:09:04.484Z,100745.48
2019-06-10T01:11:32.742Z,100715.00
2019-06-10T01:14:01.443Z,100739.16
2019-06-10T01:16:31.638Z,100735.55
2019-06-10T01:19:01.253Z,100724.36
2019-06-10T01:21:28.356Z,100729.48
2019-06-10T01:23:58.216Z,100721.50
2019-06-10T01:26:25.531Z,100712.42
2019-06-10T01:28:52.863Z,100712.88
2019-06-10T01:31:23.928Z,100706.91
2019-06-10T01:33:51.348Z,100710.51
2019-06-10T01:36:21.063Z,100697.03
2019-06-10T01:38:47.808Z,100698.77
2019-06-10T01:41:16.703Z,100691.95
2019-06-10T01:43:44.499Z,100689.73
2019-06-10T01:46:14.105Z,100686.61
2019-06-10T01:48:47.240Z,100682.30
2019-06-10T01:51:14.297Z,100684.08
2019-06-10T01:53:41.493Z,100683.71
2019-06-10T01:56:12.349Z,100684.73
2019-06-10T01:58:40.594Z,100680.77
2019-06-10T02:01:17.417Z,100680.45
2019-06-10T02:03:43.499Z,100682.55
2019-06-10T02:06:14.601Z,100680.91
2019-06-10T02:08:41.798Z,100680.95
2019-06-10T02:11:12.349Z,100672.68
2019-06-10T02:13:40.823Z,100675.25
2019-06-10T02:16:10.361Z,100666.71
2019-06-10T02:18:37.806Z,100667.45
2019-06-10T02:21:04.825Z,100666.67
2019-06-10T02:23:33.093Z,100671.95
2019-06-10T02:26:01.753Z,100670.45
2019-06-10T02:28:31.668Z,100661.08
2019-06-10T02:31:03.445Z,100661.40
2019-06-10T02:33:32.403Z,100648.34
2019-06-10T02:35:57.549Z,100647.59
2019-06-10T02:38:33.701Z,100639.23
2019-06-10T02:40:54.179Z,100636.23
2019-06-10T02:43:31.696Z,100634.59
2019-06-10T02:45:53.200Z,100627.33
2019-06-10T02:48:24.378Z,100614.64
2019-06-10T02:51:04.261Z,100614.16
2019-06-10T02:53:35.603Z,100608.95
2019-06-10T02:56:04.144Z,100601.06
2019-06-10T02:58:38.488Z,100604.19
2019-06-10T03:01:04.266Z,100598.77
2019-06-10T03:03:39.380Z,100593.34
2019-06-10T03:06:06.700Z,100597.52
2019-06-10T03:08:35.242Z,100596.36
2019-06-10T03:11:03.513Z,100594.30
2019-06-10T03:13:29.561Z,100599.80
2019-06-10T03:16:02.985Z,100592.04
2019-06-10T03:18:32.676Z,100585.03
2019-06-10T03:20:59.225Z,100586.97
2019-06-10T03:23:27.884Z,100588.05
2019-06-10T03:26:03.921Z,100578.73
2019-06-10T03:28:32.081Z,100581.76
2019-06-10T03:30:59.461Z,100590.67
2019-06-10T03:33:31.467Z,100597.39
2019-06-10T03:35:56.011Z,100593.52
2019-06-10T03:38:25.444Z,100596.02
2019-06-10T03:40:52.539Z,100592.22
2019-06-10T03:43:21.433Z,100586.30
2019-06-10T03:45:49.199Z,100579.23
2019-06-10T03:48:17.147Z,100582.48
2019-06-10T03:50:44.861Z,100578.52
2019-06-10T03:53:12.824Z,100577.71
2019-06-10T03:55:42.247Z,100581.68
2019-06-10T03:58:09.646Z,100583.50
2019-06-10T04:00:37.237Z,100591.98
2019-06-10T04:03:04.957Z,100591.80
2019-06-10T04:05:33.120Z,100593.09
2019-06-10T04:08:02.123Z,100594.31
2019-06-10T04:10:32.359Z,100587.70
2019-06-10T04:13:02.460Z,100587.67
2019-06-10T04:15:29.566Z,100579.52
2019-06-10T04:17:57.951Z,100581.39
2019-06-10T04:20:28.331Z,100577.05
2019-06-10T04:22:54.256Z,100566.73
2019-06-10T04:25:24.700Z,100560.45
2019-06-10T04:27:52.447Z,100561.09
2019-06-10T04:30:20.113Z,100555.63
2019-06-10T04:32:47.915Z,100556.13
2019-06-10T04:35:15.367Z,100550.81
2019-06-10T04:37:43.055Z,100546.97
2019-06-10T04:40:13.143Z,100542.57
2019-06-10T04:42:39.715Z,100539.73
2019-06-10T04:45:06.817Z,100536.93
2019-06-10T04:47:34.552Z,100546.39
2019-06-10T04:50:03.185Z,100542.97
2019-06-10T04:52:32.882Z,100538.70
2019-06-10T04:55:02.607Z,100533.91
2019-06-10T04:57:32.224Z,100531.95
2019-06-10T04:59:58.981Z,100530.73
2019-06-10T05:02:27.391Z,100528.84
2019-06-10T05:04:55.885Z,100523.72
2019-06-10T05:07:24.145Z,100524.31
2019-06-10T05:09:53.119Z,100522.98
2019-06-10T05:12:23.264Z,100522.98
2019-06-10T05:14:49.822Z,100524.48
2019-06-10T05:17:17.441Z,100524.90
2019-06-10T05:19:45.067Z,100524.83
2019-06-10T05:22:13.359Z,100525.11
2019-06-10T05:24:42.412Z,100526.27
2019-06-10T05:27:09.855Z,100522.23
2019-06-10T05:29:37.578Z,100524.87
2019-06-10T05:32:05.598Z,100514.59
2019-06-10T05:34:34.772Z,100520.19
2019-06-10T05:37:02.821Z,100519.16
2019-06-10T05:39:32.421Z,100515.92
2019-06-10T05:41:59.890Z,100514.78
2019-06-10T05:44:28.438Z,100511.69
2019-06-10T05:46:55.555Z,100515.92
2019-06-10T05:49:25.853Z,100524.08
2019-06-10T05:51:52.989Z,100522.94
2019-06-10T05:54:20.465Z,100524.37
2019-06-10T05:56:47.785Z,100523.70
2019-06-10T05:59:14.830Z,100525.88
2019-06-10T06:01:43.158Z,100526.44
2019-06-10T06:04:12.699Z,100530.70
2019-06-10T06:06:42.479Z,100530.14
2019-06-10T06:09:09.608Z,100530.31
2019-06-10T06:11:37.780Z,100523.49
2019-06-10T06:14:05.008Z,100513.08
2019-06-10T06:16:45.256Z,100517.81
2019-06-10T06:19:13.083Z,100519.22
2019-06-10T06:21:47.097Z,100512.66
2019-06-10T06:24:12.819Z,100503.30
2019-06-10T06:26:42.786Z,100500.57
2019-06-10T06:29:09.467Z,100492.99
2019-06-10T06:31:37.737Z,100497.92
2019-06-10T06:34:05.155Z,100496.48
2019-06-10T06:36:34.701Z,100501.87
2019-06-10T06:39:08.174Z,100501.03
2019-06-10T06:41:42.921Z,100499.80
2019-06-10T06:44:14.541Z,100502.24
2019-06-10T06:46:42.984Z,100500.89
2019-06-10T06:49:12.581Z,100501.87
2019-06-10T06:51:52.095Z,100501.65
2019-06-10T06:54:34.881Z,100494.66
2019-06-10T06:57:03.651Z,100498.43
2019-06-10T06:59:33.851Z,100497.71
2019-06-10T07:02:02.717Z,100500.48
2019-06-10T07:04:33.878Z,100505.03
2019-06-10T07:07:02.675Z,100504.00
2019-06-10T07:09:35.633Z,100500.58
2019-06-10T07:12:04.056Z,100494.95
2019-06-10T07:14:36.816Z,100499.68
2019-06-10T07:17:04.011Z,100497.94
2019-06-10T07:19:34.427Z,100497.64
2019-06-10T07:22:11.405Z,100496.94
2019-06-10T07:24:32.687Z,100501.33
2019-06-10T07:26:59.054Z,100498.31
2019-06-10T07:29:26.384Z,100500.84
2019-06-10T07:31:54.387Z,100507.16
2019-06-10T07:34:22.396Z,100503.92
2019-06-10T07:36:52.010Z,100496.79
2019-06-10T07:39:19.563Z,100490.03
2019-06-10T07:41:47.878Z,100490.77
2019-06-10T07:44:15.113Z,100497.91
2019-06-10T07:46:45.180Z,100498.88
2019-06-10T07:49:13.414Z,100493.14
2019-06-10T07:51:45.592Z,100493.47
2019-06-10T07:54:12.413Z,100492.88
2019-06-10T07:56:45.206Z,100493.29
2019-06-10T07:59:09.743Z,100493.63
2019-06-10T08:01:42.275Z,100484.61
2019-06-10T08:04:06.384Z,100483.75
2019-06-10T08:06:35.168Z,100477.05
2019-06-10T08:09:04.763Z,100479.84
2019-06-10T08:11:33.210Z,100476.86
2019-06-10T08:14:04.371Z,100470.34
2019-06-10T08:16:29.648Z,100459.34
2019-06-10T08:19:21.893Z,100452.23
2019-06-10T08:21:26.522Z,100455.36
2019-06-10T08:23:54.384Z,100462.25
2019-06-10T08:26:23.186Z,100459.14
2019-06-10T08:28:53.021Z,100465.42
2019-06-10T08:31:22.621Z,100465.00
2019-06-10T08:33:49.533Z,100470.36
2019-06-10T08:36:16.880Z,100470.72
2019-06-10T08:38:46.810Z,100475.84
2019-06-10T08:41:13.212Z,100470.23
2019-06-10T08:43:44.709Z,100465.62
2019-06-10T08:46:09.808Z,100467.58
2019-06-10T08:48:37.474Z,100436.08
2019-06-10T08:51:05.686Z,100456.55
2019-06-10T08:53:33.199Z,100451.58
2019-06-10T08:56:02.889Z,100440.02
2019-06-10T08:58:32.863Z,100442.33
2019-06-10T09:01:02.342Z,100441.06
2019-06-10T09:03:32.268Z,100442.49
2019-06-10T09:05:59.686Z,100445.75
2019-06-10T09:08:27.144Z,100445.16
2019-06-10T09:10:55.346Z,100434.70
2019-06-10T09:13:22.983Z,100434.70
2019-06-10T09:16:07.120Z,100434.23
2019-06-10T09:18:20.109Z,100428.91
2019-06-10T09:20:52.660Z,100430.52
2019-06-10T09:23:22.476Z,100422.09
2019-06-10T09:25:49.450Z,100419.82
2019-06-10T09:28:16.028Z,100419.44
2019-06-10T09:30:48.802Z,100415.16
2019-06-10T09:33:13.026Z,100415.05
2019-06-10T09:35:44.123Z,100410.70
2019-06-10T09:38:10.603Z,100411.26
2019-06-10T09:41:00.387Z,100416.77
2019-06-10T09:43:22.535Z,100420.99
2019-06-10T09:45:55.271Z,100409.75
2019-06-10T09:48:22.958Z,100402.22
2019-06-10T09:50:53.593Z,100396.23
2019-06-10T09:53:32.083Z,100402.88
2019-06-10T09:55:51.087Z,100402.34
2019-06-10T09:58:18.208Z,100372.34
2019-06-10T10:00:49.397Z,100403.84
2019-06-10T10:03:16.245Z,100398.33
2019-06-10T10:05:57.264Z,100393.86
2019-06-10T10:08:13.760Z,100399.67
2019-06-10T10:10:42.837Z,100394.72
2019-06-10T10:13:12.924Z,100398.25
2019-06-10T10:15:39.936Z,100397.72
2019-06-10T10:18:08.602Z,100398.33
2019-06-10T10:20:36.488Z,100399.48
2019-06-10T10:23:04.127Z,100393.59
2019-06-10T10:25:33.267Z,100395.16
2019-06-10T10:28:03.063Z,100391.56
2019-06-10T10:30:29.835Z,100392.38
2019-06-10T10:32:57.285Z,100393.78
2019-06-10T10:35:25.156Z,100392.22
2019-06-10T10:37:54.287Z,100389.85
2019-06-10T10:40:23.329Z,100393.67
2019-06-10T10:43:00.664Z,100396.54
2019-06-10T10:45:22.530Z,100395.73
2019-06-10T10:47:51.845Z,100395.16
2019-06-10T10:50:19.319Z,100395.42
2019-06-10T10:52:48.204Z,100393.30
2019-06-10T10:55:16.503Z,100390.22
2019-06-10T10:57:45.213Z,100383.66
2019-06-10T11:00:13.582Z,100379.37
2019-06-10T11:02:43.150Z,100377.49
2019-06-10T11:05:12.816Z,100371.77
2019-06-10T11:07:42.316Z,100364.00
2019-06-10T11:10:12.686Z,100358.85
2019-06-10T11:12:43.018Z,100358.48
2019-06-10T11:15:13.693Z,100354.48
2019-06-10T11:17:42.670Z,100349.77
2019-06-10T11:20:10.463Z,100344.98
2019-06-10T11:22:38.148Z,100337.65
2019-06-10T11:25:05.901Z,100334.23
2019-06-10T11:27:36.943Z,100331.84
2019-06-10T11:30:05.185Z,100309.50
2019-06-10T11:32:32.917Z,100329.03
2019-06-10T11:35:02.784Z,100323.94
2019-06-10T11:37:30.119Z,100322.66
2019-06-10T11:39:57.165Z,100324.09
2019-06-10T11:42:24.486Z,100328.27
2019-06-10T11:44:57.329Z,100331.78
2019-06-10T11:47:22.873Z,100325.95
2019-06-10T11:49:53.469Z,100325.04
2019-06-10T11:52:19.609Z,100321.28
2019-06-10T11:54:55.654Z,100317.96
2019-06-10T11:57:16.032Z,100317.33
2019-06-10T11:59:44.077Z,100314.45
2019-06-10T12:02:13.295Z,100309.95
2019-06-10T12:04:41.855Z,100307.59
2019-06-10T12:07:09.143Z,100300.11
2019-06-10T12:09:37.164Z,100297.31
2019-06-10T12:12:04.598Z,100287.95
2019-06-10T12:14:33.155Z,100282.95
2019-06-10T12:17:39.941Z,100279.72
2019-06-10T12:19:33.863Z,100290.22
2019-06-10T12:22:07.075Z,100281.36
2019-06-10T12:24:33.229Z,100268.19
2019-06-10T12:27:04.487Z,100273.74
2019-06-10T12:29:30.715Z,100275.52
2019-06-10T12:32:02.816Z,100268.50
2019-06-10T12:34:27.573Z,100260.76
2019-06-10T12:36:59.530Z,100254.70
2019-06-10T12:39:23.665Z,100263.62
2019-06-10T12:41:54.625Z,100258.42
2019-06-10T12:44:22.811Z,100265.98
2019-06-10T12:46:54.896Z,100262.82
2019-06-10T12:49:19.501Z,100254.83
2019-06-10T12:51:47.450Z,100256.73
2019-06-10T12:54:15.117Z,100255.02
2019-06-10T12:56:43.018Z,100255.17
2019-06-10T12:59:13.293Z,100251.81
2019-06-10T13:01:40.165Z,100246.12
2019-06-10T13:04:09.452Z,100251.37
2019-06-10T13:06:38.807Z,100255.28
2019-06-10T13:09:08.081Z,100245.95
2019-06-10T13:11:36.095Z,100243.20
2019-06-10T13:14:06.441Z,100233.73
2019-06-10T13:16:33.303Z,100230.71
2019-06-10T13:19:06.147Z,100227.63
2019-06-10T13:21:33.040Z,100224.42
2019-06-10T13:24:02.525Z,100218.66
2019-06-10T13:26:32.319Z,100215.78
2019-06-10T13:28:59.002Z,100208.76
2019-06-10T13:31:25.957Z,100206.09
2019-06-10T13:33:53.682Z,100205.66
2019-06-10T13:36:23.696Z,100206.41
2019-06-10T13:38:53.084Z,100200.21
2019-06-10T13:41:22.573Z,100193.94
2019-06-10T13:43:49.495Z,100193.42
2019-06-10T13:46:17.202Z,100192.44
2019-06-10T13:48:44.839Z,100196.27
2019-06-10T13:51:15.354Z,100194.94
2019-06-10T13:53:42.608Z,100179.56
2019-06-10T13:56:32.089Z,100174.47
2019-06-10T13:58:45.025Z,100170.50
2019-06-10T14:01:15.380Z,100169.68
2019-06-10T14:03:38.336Z,100167.59
2019-06-10T14:06:20.911Z,100164.55
2019-06-10T14:08:34.449Z,100165.92
2019-06-10T14:11:06.957Z,100161.23
2019-06-10T14:13:32.600Z,100160.14
2019-06-10T14:16:01.223Z,100170.48
2019-06-10T14:18:29.320Z,100171.97
2019-06-10T14:20:56.384Z,100169.44
2019-06-10T14:23:23.647Z,100177.30
2019-06-10T14:25:52.409Z,100171.80
2019-06-10T14:28:35.843Z,100176.21
2019-06-10T14:30:48.684Z,100173.64
2019-06-10T14:33:16.763Z,100167.39
2019-06-10T14:35:44.547Z,100156.13
2019-06-10T14:38:14.342Z,100155.40
2019-06-10T14:40:42.950Z,100160.24
2019-06-10T14:43:13.505Z,100156.78
2019-06-10T14:45:42.346Z,100152.56
2019-06-10T14:48:11.494Z,100156.95
2019-06-10T14:50:39.276Z,100155.08
2019-06-10T14:53:07.001Z,100156.93
2019-06-10T14:55:34.351Z,100159.98
2019-06-10T14:58:02.703Z,100161.42
2019-06-10T15:00:33.101Z,100162.26
2019-06-10T15:03:02.416Z,100160.25
2019-06-10T15:05:32.286Z,100147.74
2019-06-10T15:07:59.229Z,100151.64
2019-06-10T15:10:26.934Z,100151.70
2019-06-10T15:12:55.272Z,100148.25
2019-06-10T15:15:23.637Z,100148.42
2019-06-10T15:17:52.513Z,100148.75
2019-06-10T15:20:22.532Z,100152.41
2019-06-10T15:22:52.477Z,100156.23
2019-06-10T15:25:25.308Z,100153.28
2019-06-10T15:27:48.751Z,100162.66
2019-06-10T15:30:25.904Z,100163.66
2019-06-10T15:32:45.283Z,100162.36
2019-06-10T15:35:14.177Z,100164.76
2019-06-10T15:38:08.862Z,100155.08
2019-06-10T15:40:37.486Z,100159.91
2019-06-10T15:43:06.326Z,100145.63
2019-06-10T15:45:34.170Z,100151.24
2019-06-10T15:48:02.674Z,100149.41
2019-06-10T15:50:32.257Z,100141.33
2019-06-10T15:52:59.389Z,100138.03
2019-06-10T15:55:49.204Z,100132.20
2019-06-10T15:57:56.911Z,100125.23
2019-06-10T16:00:29.050Z,100123.19
2019-06-10T16:02:54.221Z,100127.00
2019-06-10T16:05:25.157Z,100113.07
2019-06-10T16:07:52.982Z,100112.23
2019-06-10T16:10:23.332Z,100102.89
2019-06-10T16:12:52.588Z,100097.46
2019-06-10T16:15:19.486Z,100103.02
2019-06-10T16:17:48.105Z,100099.47
2019-06-10T16:20:16.470Z,100092.36
2019-06-10T16:22:45.054Z,100085.48
2019-06-10T16:25:13.065Z,100084.83
2019-06-10T16:27:48.643Z,100082.95
2019-06-10T16:30:12.917Z,100088.91
2019-06-10T16:32:40.470Z,100089.35
2019-06-10T16:35:07.850Z,100090.89
2019-06-10T16:37:35.523Z,100096.39
2019-06-10T16:40:03.321Z,100096.66
2019-06-10T16:42:32.186Z,100100.97
2019-06-10T16:44:59.229Z,100095.75
2019-06-10T16:47:27.361Z,100092.73
2019-06-10T16:49:54.539Z,100090.02
2019-06-10T16:52:24.067Z,100093.50
2019-06-10T16:54:52.617Z,100094.84
2019-06-10T16:57:23.922Z,100110.26
2019-06-10T16:59:52.072Z,100105.08
2019-06-10T17:02:22.330Z,100111.17
2019-06-10T17:04:49.444Z,100126.98
2019-06-10T17:07:16.493Z,100111.56
2019-06-10T17:09:43.707Z,100113.91
2019-06-10T17:12:12.635Z,100110.64
2019-06-10T17:14:42.786Z,100113.55
2019-06-10T17:17:09.498Z,100116.04
2019-06-10T17:19:36.836Z,100116.28
2019-06-10T17:22:03.888Z,100104.75
2019-06-10T17:24:33.642Z,100101.80
2019-06-10T17:27:02.614Z,100083.30
2019-06-10T17:29:30.613Z,100079.56
2019-06-10T17:31:58.689Z,100071.70
2019-06-10T17:34:28.047Z,100075.05
2019-06-10T17:36:56.016Z,100076.55
2019-06-10T17:39:25.078Z,100085.93
2019-06-10T17:41:52.664Z,100080.47
2019-06-10T17:44:23.676Z,100087.59
2019-06-10T17:46:48.986Z,100059.28
2019-06-10T17:49:16.346Z,100101.56
2019-06-10T17:51:43.444Z,100103.94
2019-06-10T17:54:12.964Z,100110.66
2019-06-10T17:56:42.475Z,100115.19
2019-06-10T17:59:09.414Z,100127.18
2019-06-10T18:01:36.769Z,100121.61
2019-06-10T18:04:03.900Z,100121.29
2019-06-10T18:06:34.408Z,100113.67
2019-06-10T18:09:04.074Z,100107.09
2019-06-10T18:11:34.174Z,100096.25
2019-06-10T18:14:02.548Z,100098.81
2019-06-10T18:16:30.269Z,100087.59
2019-06-10T18:18:57.642Z,100085.03
2019-06-10T18:21:26.293Z,100086.28
2019-06-10T18:23:54.141Z,100083.03
2019-06-10T18:26:23.075Z,100104.42
2019-06-10T18:29:04.357Z,100115.53
2019-06-10T18:31:20.156Z,100146.48
2019-06-10T18:33:47.550Z,100151.33
2019-06-10T18:36:14.558Z,100154.14
2019-06-10T18:38:43.286Z,100149.41
2019-06-10T18:41:12.885Z,100160.28
2019-06-10T18:43:40.090Z,100172.19
2019-06-10T18:46:07.321Z,100168.41
2019-06-10T18:48:37.666Z,100169.09
2019-06-10T18:51:04.737Z,100170.83
2019-06-10T18:53:33.556Z,100165.64
2019-06-10T18:56:05.181Z,100165.27
2019-06-10T18:58:34.615Z,100171.37
2019-06-10T19:01:07.215Z,100180.15
2019-06-10T19:03:36.231Z,100176.52
2019-06-10T19:06:02.847Z,100180.38
2019-06-10T19:08:33.700Z,100183.39
2019-06-10T19:11:02.356Z,100187.11
2019-06-10T19:13:29.572Z,100172.56
2019-06-10T19:15:56.974Z,100178.45
2019-06-10T19:18:24.045Z,100178.94
2019-06-10T19:20:53.071Z,100180.52
2019-06-10T19:23:22.606Z,100171.89
2019-06-10T19:25:52.532Z,100169.05
2019-06-10T19:28:19.197Z,100158.34
2019-06-10T19:30:46.816Z,100159.54
2019-06-10T19:33:13.928Z,100154.84
2019-06-10T19:35:43.720Z,100161.88
2019-06-10T19:38:12.583Z,100157.08
2019-06-10T19:40:40.042Z,100153.09
2019-06-10T19:43:07.206Z,100156.27
2019-06-10T19:48:19.640Z,100148.87
2019-06-10T19:50:50.612Z,100141.58
2019-06-10T19:53:15.951Z,100138.28
2019-06-10T19:55:44.385Z,100139.02
2019-06-10T19:58:13.408Z,100136.75
2019-06-10T20:00:41.894Z,100145.04
2019-06-10T20:03:10.473Z,100138.86
2019-06-10T20:05:38.097Z,100139.84
2019-06-10T20:08:05.801Z,100135.55
2019-06-10T20:10:34.081Z,100120.41
2019-06-10T20:13:02.286Z,100128.39
2019-06-10T20:15:29.616Z,100122.35
2019-06-10T20:17:57.567Z,100114.95
2019-06-10T20:20:24.969Z,100114.72
2019-06-10T20:22:57.225Z,100119.56
2019-06-10T20:25:23.143Z,100123.51
2019-06-10T20:27:52.458Z,100125.66
2019-06-10T20:30:25.191Z,100120.25
2019-06-10T20:32:51.959Z,100113.07
2019-06-10T20:35:18.988Z,100107.81
2019-06-10T20:37:47.377Z,100119.41
2019-06-10T20:40:14.561Z,100120.55
2019-06-10T20:42:42.305Z,100125.55
2019-06-10T20:45:10.172Z,100137.78
2019-06-10T20:47:37.786Z,100146.61
2019-06-10T20:50:05.647Z,100163.30
2019-06-10T20:52:32.691Z,100157.09
2019-06-10T20:55:02.421Z,100163.30
2019-06-10T20:57:29.381Z,100162.33
2019-06-10T20:59:56.751Z,100166.14
2019-06-10T21:02:24.902Z,100170.00
2019-06-10T21:04:53.276Z,100170.06
2019-06-10T21:07:23.169Z,100168.40
2019-06-10T21:09:53.443Z,100168.90
2019-06-10T21:12:22.219Z,100176.23
2019-06-10T21:14:52.955Z,100177.47
2019-06-10T21:17:19.889Z,100163.58
2019-06-10T21:19:47.897Z,100167.37
2019-06-10T21:22:16.463Z,100170.42
2019-06-10T21:24:44.498Z,100157.09
2019-06-10T21:27:11.831Z,100155.35
2019-06-10T21:29:39.113Z,100156.89
2019-06-10T21:32:07.022Z,100158.76
2019-06-10T21:34:34.662Z,100159.66
2019-06-10T21:37:03.288Z,100174.75
2019-06-10T21:39:32.245Z,100175.23
2019-06-10T21:42:02.109Z,100165.19
2019-06-10T21:44:29.177Z,100155.77
2019-06-10T21:46:56.775Z,100160.23
2019-06-10T21:49:26.348Z,100164.98
2019-06-10T21:51:56.774Z,100159.78
2019-06-10T21:54:23.548Z,100162.11
2019-06-10T21:56:54.045Z,100166.53
2019-06-10T21:59:19.483Z,100162.88
2019-06-10T22:04:34.994Z,100154.44
2019-06-10T22:07:03.421Z,100150.47
2019-06-10T22:09:30.425Z,100158.09
2019-06-10T22:11:57.681Z,100144.11
2019-06-10T22:14:25.036Z,100144.83
2019-06-10T22:16:54.982Z,100148.74
2019-06-10T22:19:23.152Z,100154.85
2019-06-10T22:21:53.197Z,100148.66
2019-06-10T22:24:22.803Z,100142.39
2019-06-10T22:26:51.028Z,100145.37
2019-06-10T22:29:19.111Z,100139.95
2019-06-10T22:31:47.181Z,100138.41
2019-06-10T22:34:14.213Z,100133.90
2019-06-10T22:36:42.344Z,100136.15
2019-06-10T22:39:12.337Z,100140.55
2019-06-10T22:41:39.033Z,100147.54
2019-06-10T22:44:06.379Z,100158.69
2019-06-10T22:46:33.748Z,100157.12
2019-06-10T22:49:03.069Z,100146.91
2019-06-10T22:51:32.995Z,100152.22
2019-06-10T22:54:00.816Z,100145.73
2019-06-10T22:56:29.544Z,100147.31
2019-06-10T22:58:57.474Z,100148.38
2019-06-10T23:01:33.797Z,100136.18
2019-06-10T23:03:54.557Z,100133.19
2019-06-10T23:06:23.252Z,100135.06
2019-06-10T23:08:53.376Z,100151.64
2019-06-10T23:11:19.993Z,100147.55
2019-06-10T23:13:48.610Z,100154.77
2019-06-10T23:16:16.612Z,100159.86
2019-06-10T23:18:44.239Z,100168.02
2019-06-10T23:21:13.435Z,100167.89
2019-06-10T23:23:42.999Z,100168.17
2019-06-10T23:26:12.943Z,100165.01
2019-06-10T23:28:41.979Z,100177.03
2019-06-10T23:31:09.559Z,100182.52
2019-06-10T23:36:23.577Z,100202.00
2019-06-10T23:38:52.541Z,100201.05
2019-06-10T23:41:22.342Z,100206.53
2019-06-10T23:43:50.847Z,100200.09
2019-06-10T23:46:18.261Z,100208.62
2019-06-10T23:48:45.618Z,100207.13
2019-06-10T23:51:13.928Z,100194.72
2019-06-10T23:53:41.571Z,100194.77
2019-06-10T23:56:08.878Z,100198.54
2019-06-10T23:58:36.286Z,100214.86
